Time;durP1;ratioP1;P1;durP2;ratioP2;P2;SDS_P1;SDS_P2;PMS_P1;PMS_P2;Temp;Humidity;BMP_temperature;BMP_pressure;BME280_temperature;BME280_humidity;BME280_pressure;Samples;Min_cycle;Max_cycle;Signal;HPM_P1;HPM_P2
2022/03/20 00:01:16;;;;;;;;;;;10.10;99.90;;;;;;4998545;28;20357;-79
2022/03/20 00:03:47;;;;;;;;;;;9.90;99.90;;;;;;5014023;28;20009;-79
2022/03/20 00:06:14;;;;;;;;;;;9.70;99.90;;;;;;5000752;28;20081;-78
2022/03/20 00:08:43;;;;;;;;;;;9.70;99.90;;;;;;5030592;28;20002;-77
2022/03/20 00:11:10;;;;;;;;;;;10.10;99.90;;;;;;4998047;28;20093;-75
2022/03/20 00:13:39;;;;;;;;;;;10.30;99.90;;;;;;5011400;28;20084;-77
2022/03/20 00:16:08;;;;;;;;;;;10.50;99.90;;;;;;5045730;28;20470;-76
2022/03/20 00:18:40;;;;;;;;;;;10.60;99.90;;;;;;5028888;28;20040;-77
2022/03/20 00:21:11;;;;;;;;;;;10.50;99.90;;;;;;5017216;28;20001;-74
2022/03/20 00:23:39;;;;;;;;;;;10.10;99.90;;;;;;5017868;28;20001;-77
2022/03/20 00:26:07;;;;;;;;;;;10.10;99.90;;;;;;5018147;28;20429;-79
2022/03/20 00:28:35;;;;;;;;;;;10.10;99.90;;;;;;5034712;28;20002;-80
2022/03/20 00:31:06;;;;;;;;;;;10.10;99.90;;;;;;5017474;28;20480;-78
2022/03/20 00:33:34;;;;;;;;;;;10.00;99.90;;;;;;5017000;28;20013;-77
2022/03/20 00:36:00;;;;;;;;;;;10.00;99.90;;;;;;5017970;28;20017;-80
2022/03/20 00:38:32;;;;;;;;;;;10.00;99.90;;;;;;5033813;28;20017;-78
2022/03/20 00:41:04;;;;;;;;;;;9.80;99.90;;;;;;5018005;28;20056;-77
2022/03/20 00:43:32;;;;;;;;;;;9.90;99.90;;;;;;5035323;28;20067;-80
2022/03/20 00:46:01;;;;;;;;;;;9.80;99.90;;;;;;5017473;28;20479;-77
2022/03/20 00:48:58;;;;;;;;;;;9.80;99.90;;;;;;5021788;28;20021;-77
2022/03/20 00:51:26;;;;;;;;;;;9.80;99.90;;;;;;5035380;28;20002;-80
2022/03/20 00:53:55;;;;;;;;;;;9.80;99.90;;;;;;5018408;28;20014;-80
2022/03/20 00:56:23;;;;;;;;;;;9.80;99.90;;;;;;5034966;28;19998;-77
2022/03/20 00:58:52;;;;;;;;;;;9.80;99.90;;;;;;5030198;28;20022;-78
2022/03/20 01:01:28;;;;;;;;;;;9.80;99.90;;;;;;5031225;28;20007;-80
2022/03/20 01:03:57;;;;;;;;;;;9.80;99.90;;;;;;5035233;28;20458;-80
2022/03/20 01:06:24;;;;;;;;;;;9.80;99.90;;;;;;5029768;28;20008;-78
2022/03/20 01:08:58;;;;;;;;;;;9.80;99.90;;;;;;5015415;28;20026;-81
2022/03/20 01:11:26;;;;;;;;;;;9.70;99.90;;;;;;4995697;28;20044;-75
2022/03/20 01:13:57;;;;;;;;;;;9.60;99.90;;;;;;5016318;28;20018;-74
2022/03/20 01:16:26;;;;;;;;;;;9.70;99.90;;;;;;5014005;28;19998;-75
2022/03/20 01:18:55;;;;;;;;;;;9.70;99.90;;;;;;5027464;28;20104;-78
2022/03/20 01:21:30;;;;;;;;;;;9.70;99.90;;;;;;5034564;28;20053;-77
2022/03/20 01:23:59;;;;;;;;;;;9.70;99.90;;;;;;5017348;28;20366;-75
2022/03/20 01:26:29;;;;;;;;;;;9.70;99.90;;;;;;5016479;28;20400;-78
2022/03/20 01:28:56;;;;;;;;;;;9.70;99.90;;;;;;5016702;28;20507;-77
2022/03/20 01:31:23;;;;;;;;;;;9.70;99.90;;;;;;5034385;28;20021;-75
2022/03/20 01:33:53;;;;;;;;;;;9.60;99.90;;;;;;5016055;28;20006;-74
2022/03/20 01:36:21;;;;;;;;;;;9.70;99.90;;;;;;5034413;28;20000;-77
2022/03/20 01:38:49;;;;;;;;;;;9.60;99.90;;;;;;5032956;28;20018;-80
2022/03/20 01:41:19;;;;;;;;;;;9.60;99.90;;;;;;5016278;28;20531;-74
2022/03/20 01:43:54;;;;;;;;;;;9.60;99.90;;;;;;5016476;28;20023;-78
2022/03/20 01:46:23;;;;;;;;;;;9.50;99.90;;;;;;5015943;28;20076;-76
2022/03/20 01:48:50;;;;;;;;;;;9.40;99.90;;;;;;5016273;28;20348;-75
2022/03/20 01:52:10;;;;;;;;;;;9.40;99.90;;;;;;5033966;28;19994;-75
2022/03/20 01:54:05;;;;;;;;;;;9.40;99.90;;;;;;5033708;28;20006;-77
2022/03/20 01:56:33;;;;;;;;;;;9.40;99.90;;;;;;5015828;28;20381;-75
2022/03/20 01:59:03;;;;;;;;;;;9.40;99.90;;;;;;5016158;28;20010;-81
2022/03/20 02:01:30;;;;;;;;;;;9.30;99.90;;;;;;5016255;28;20081;-81
2022/03/20 02:03:57;;;;;;;;;;;9.40;99.90;;;;;;5033938;28;20001;-74
2022/03/20 02:06:26;;;;;;;;;;;9.40;99.90;;;;;;5034037;28;20008;-77
2022/03/20 02:08:55;;;;;;;;;;;9.50;99.90;;;;;;5016079;28;20005;-77
2022/03/20 02:11:26;;;;;;;;;;;9.60;99.90;;;;;;5049314;28;20001;-77
2022/03/20 02:13:56;;;;;;;;;;;9.70;99.90;;;;;;5016186;28;20018;-75
2022/03/20 02:16:24;;;;;;;;;;;9.70;99.90;;;;;;4996768;28;20002;-78
2022/03/20 02:18:52;;;;;;;;;;;9.80;99.90;;;;;;5013688;28;20057;-77
2022/03/20 02:21:39;;;;;;;;;;;9.70;99.90;;;;;;5013806;28;20066;-76
2022/03/20 02:24:46;;;;;;;;;;;9.70;99.90;;;;;;5009370;28;19998;-82
2022/03/20 02:27:25;;;;;;;;;;;9.60;99.90;;;;;;4975370;28;20008;-79
2022/03/20 02:30:16;;;;;;;;;;;9.50;99.90;;;;;;4996950;28;20050;-82
2022/03/20 02:32:53;;;;;;;;;;;9.50;99.90;;;;;;5013237;28;20501;-77
2022/03/20 02:35:20;;;;;;;;;;;9.50;99.90;;;;;;4996555;28;20029;-78
2022/03/20 02:37:51;;;;;;;;;;;9.60;99.90;;;;;;5013742;28;20093;-82
2022/03/20 02:40:22;;;;;;;;;;;9.60;99.90;;;;;;4996564;28;20352;-78
2022/03/20 02:42:50;;;;;;;;;;;9.50;99.90;;;;;;4992940;28;20057;-79
2022/03/20 02:45:27;;;;;;;;;;;9.50;99.90;;;;;;5021658;28;20601;-83
2022/03/20 02:47:54;;;;;;;;;;;9.50;99.90;;;;;;5013086;28;20365;-75
2022/03/20 02:50:25;;;;;;;;;;;9.60;99.90;;;;;;5013623;28;19995;-78
2022/03/20 02:52:52;;;;;;;;;;;9.60;99.90;;;;;;4995985;28;20002;-77
2022/03/20 02:55:23;;;;;;;;;;;9.50;99.90;;;;;;4995913;28;20046;-79
2022/03/20 02:58:10;;;;;;;;;;;9.60;99.90;;;;;;5009576;28;20058;-77
2022/03/20 03:00:37;;;;;;;;;;;9.60;99.90;;;;;;4996074;28;20002;-75
2022/03/20 03:03:11;;;;;;;;;;;9.70;99.90;;;;;;5013329;28;20001;-77
2022/03/20 03:05:39;;;;;;;;;;;9.70;99.90;;;;;;5013779;28;19995;-78
2022/03/20 03:10:57;;;;;;;;;;;9.70;99.90;;;;;;5013280;28;19998;-75
2022/03/20 03:13:38;;;;;;;;;;;9.70;99.90;;;;;;5027211;28;20057;-82
2022/03/20 03:16:14;;;;;;;;;;;9.70;99.90;;;;;;5015754;28;19998;-82
2022/03/20 03:18:44;;;;;;;;;;;9.70;99.90;;;;;;4998847;28;20017;-82
2022/03/20 03:21:12;;;;;;;;;;;9.70;99.90;;;;;;5033022;28;19994;-77
2022/03/20 03:23:41;;;;;;;;;;;9.80;99.90;;;;;;5015207;28;20009;-82
2022/03/20 03:26:11;;;;;;;;;;;9.70;99.90;;;;;;5033065;28;19994;-79
2022/03/20 03:28:38;;;;;;;;;;;9.70;99.90;;;;;;4999226;28;20009;-75
2022/03/20 03:31:06;;;;;;;;;;;9.70;99.90;;;;;;5048049;28;20024;-79
2022/03/20 03:33:34;;;;;;;;;;;9.70;99.90;;;;;;5015253;28;19994;-82
2022/03/20 03:36:01;;;;;;;;;;;9.70;99.90;;;;;;5032951;28;20009;-77
2022/03/20 03:38:30;;;;;;;;;;;9.70;99.90;;;;;;4998814;28;20008;-78
2022/03/20 03:40:59;;;;;;;;;;;9.70;99.90;;;;;;5033048;28;20080;-79
2022/03/20 03:43:27;;;;;;;;;;;9.70;99.90;;;;;;4998803;28;20341;-78
2022/03/20 03:45:55;;;;;;;;;;;9.60;99.90;;;;;;5014929;28;20475;-82
2022/03/20 03:48:23;;;;;;;;;;;9.70;99.90;;;;;;5014593;28;20002;-79
2022/03/20 03:50:51;;;;;;;;;;;9.70;99.90;;;;;;5015047;28;20052;-82
2022/03/20 03:53:19;;;;;;;;;;;9.60;99.90;;;;;;5032707;28;20060;-82
2022/03/20 03:55:46;;;;;;;;;;;9.70;99.90;;;;;;5032901;28;20112;-77
2022/03/20 03:58:15;;;;;;;;;;;9.60;99.90;;;;;;5015478;28;19994;-75
2022/03/20 04:00:43;;;;;;;;;;;9.60;99.90;;;;;;5033095;28;20016;-78
2022/03/20 04:03:12;;;;;;;;;;;9.60;99.90;;;;;;5031991;28;20005;-78
2022/03/20 04:05:44;;;;;;;;;;;9.60;99.90;;;;;;5015403;28;19994;-79
2022/03/20 04:08:15;;;;;;;;;;;9.70;99.90;;;;;;5033831;28;20040;-77
2022/03/20 04:10:42;;;;;;;;;;;9.70;99.90;;;;;;5035973;28;20089;-75
2022/03/20 04:13:12;;;;;;;;;;;9.60;99.90;;;;;;5035808;28;20025;-82
2022/03/20 04:15:39;;;;;;;;;;;9.80;99.90;;;;;;5018414;28;20002;-75
2022/03/20 04:18:08;;;;;;;;;;;9.90;99.90;;;;;;5018533;28;20089;-79
2022/03/20 04:20:38;;;;;;;;;;;9.90;99.90;;;;;;5018255;28;20041;-79
2022/03/20 04:25:54;;;;;;;;;;;9.90;99.90;;;;;;5035789;28;20005;-82
2022/03/20 04:28:23;;;;;;;;;;;9.90;99.90;;;;;;5036108;28;20026;-78
2022/03/20 04:30:53;;;;;;;;;;;9.80;99.90;;;;;;5050910;28;20108;-79
2022/03/20 04:33:24;;;;;;;;;;;9.70;99.90;;;;;;5033451;28;20423;-82
2022/03/20 04:35:51;;;;;;;;;;;9.80;99.90;;;;;;5035896;28;20000;-77
2022/03/20 04:38:21;;;;;;;;;;;9.70;99.90;;;;;;5035548;28;20093;-75
2022/03/20 04:40:52;;;;;;;;;;;9.70;99.90;;;;;;5035513;28;20045;-78
2022/03/20 04:43:20;;;;;;;;;;;9.60;99.90;;;;;;5018473;28;20395;-75
2022/03/20 04:45:48;;;;;;;;;;;9.60;99.90;;;;;;5035240;28;20040;-78
2022/03/20 04:59:21;;;;;;;;;;;9.50;1.00;;;;;;5034962;28;20016;-82
2022/03/20 05:01:48;;;;;;;;;;;9.60;99.90;;;;;;5035017;28;20014;-77
2022/03/20 05:04:16;;;;;;;;;;;9.50;99.90;;;;;;5017771;28;19998;-76
2022/03/20 05:06:43;;;;;;;;;;;9.50;97.60;;;;;;5033686;28;20005;-82
2022/03/20 05:14:44;;;;;;;;;;;9.60;1.00;;;;;;5017032;28;20097;-75
2022/03/20 05:17:11;;;;;;;;;;;9.60;99.90;;;;;;5034950;28;19994;-82
2022/03/20 05:19:42;;;;;;;;;;;9.50;99.90;;;;;;5015834;28;20068;-79
2022/03/20 05:22:10;;;;;;;;;;;9.60;99.90;;;;;;5034696;28;19994;-75
2022/03/20 05:24:39;;;;;;;;;;;9.60;99.90;;;;;;5034902;28;20005;-78
2022/03/20 05:27:07;;;;;;;;;;;9.50;99.90;;;;;;5034540;28;20381;-78
2022/03/20 05:29:34;;;;;;;;;;;9.50;99.90;;;;;;5050205;28;20376;-82
2022/03/20 05:32:05;;;;;;;;;;;9.50;99.90;;;;;;5034905;28;20379;-78
2022/03/20 05:34:33;;;;;;;;;;;9.50;99.90;;;;;;5034519;28;19993;-77
2022/03/20 05:37:01;;;;;;;;;;;9.50;99.90;;;;;;5000835;28;20008;-78
2022/03/20 05:39:29;;;;;;;;;;;9.40;99.90;;;;;;5034703;28;20014;-75
2022/03/20 05:41:57;;;;;;;;;;;9.40;99.90;;;;;;5033999;28;20009;-75
2022/03/20 05:44:25;;;;;;;;;;;9.40;99.90;;;;;;5016812;28;20002;-77
2022/03/20 05:46:54;;;;;;;;;;;9.40;99.90;;;;;;5016676;28;19994;-78
2022/03/20 05:49:24;;;;;;;;;;;9.30;99.90;;;;;;5034252;28;19994;-78
2022/03/20 05:51:54;;;;;;;;;;;9.20;99.90;;;;;;5016533;28;20017;-82
2022/03/20 05:54:22;;;;;;;;;;;9.20;99.90;;;;;;5000699;28;20005;-78
2022/03/20 05:59:36;;;;;;;;;;;9.10;99.90;;;;;;5016710;28;20112;-77
2022/03/20 06:02:04;;;;;;;;;;;9.10;99.90;;;;;;5034139;28;20369;-78
2022/03/20 06:04:33;;;;;;;;;;;9.10;99.90;;;;;;5034077;28;19994;-75
2022/03/20 06:07:02;;;;;;;;;;;9.10;99.90;;;;;;5033801;28;20430;-82
2022/03/20 06:09:30;;;;;;;;;;;9.10;99.90;;;;;;4999757;28;20005;-82
2022/03/20 06:11:58;;;;;;;;;;;9.10;99.90;;;;;;5033723;28;20356;-75
2022/03/20 06:14:28;;;;;;;;;;;9.10;99.90;;;;;;5048963;28;20022;-75
2022/03/20 06:16:56;;;;;;;;;;;9.00;99.90;;;;;;5016141;28;20009;-78
2022/03/20 06:19:26;;;;;;;;;;;9.00;99.90;;;;;;5033725;28;20108;-78
2022/03/20 06:22:03;;;;;;;;;;;8.90;99.90;;;;;;5032656;28;20009;-77
2022/03/20 06:24:32;;;;;;;;;;;8.90;99.90;;;;;;5033881;28;20468;-82
2022/03/20 06:27:00;;;;;;;;;;;8.90;99.90;;;;;;5033576;28;20005;-77
2022/03/20 06:29:28;;;;;;;;;;;8.80;99.90;;;;;;5048849;28;20006;-78
2022/03/20 06:31:57;;;;;;;;;;;8.70;99.90;;;;;;5033713;28;20107;-78
2022/03/20 06:34:26;;;;;;;;;;;8.70;99.90;;;;;;5032353;28;20051;-78
2022/03/20 06:37:22;;;;;;;;;;;8.60;99.90;;;;;;5020616;28;20001;-81
2022/03/20 06:39:50;;;;;;;;;;;8.60;99.90;;;;;;5033492;28;20009;-78
2022/03/20 06:42:18;;;;;;;;;;;8.70;99.90;;;;;;5016448;28;20136;-77
2022/03/20 06:44:44;;;;;;;;;;;8.60;99.90;;;;;;5032247;28;20108;-75
2022/03/20 06:47:12;;;;;;;;;;;8.50;1.00;;;;;;5048464;28;20001;-78
2022/03/20 06:50:37;;;;;;;;;;;8.60;1.00;;;;;;5024386;28;20005;-77
2022/03/20 06:53:04;;;;;;;;;;;8.50;1.00;;;;;;5033358;28;20001;-78
2022/03/20 06:55:31;;;;;;;;;;;8.50;79.00;;;;;;5033623;28;20092;-77
2022/03/20 06:57:59;;;;;;;;;;;8.50;99.90;;;;;;5033330;28;20475;-77
2022/03/20 07:00:31;;;;;;;;;;;8.50;99.90;;;;;;4999611;28;20018;-78
2022/03/20 07:03:00;;;;;;;;;;;9.10;99.90;;;;;;5031987;28;20009;-78
2022/03/20 07:05:32;;;;;;;;;;;9.50;99.90;;;;;;5033123;28;19998;-78
2022/03/20 07:07:59;;;;;;;;;;;9.60;99.90;;;;;;5006049;28;20006;-78
2022/03/20 07:10:27;;;;;;;;;;;9.80;99.90;;;;;;5038999;28;20556;-79
2022/03/20 07:13:48;;;;;;;;;;;9.80;99.90;;;;;;5037908;23;20018;-75
2022/03/20 07:15:44;;;;;;;;;;;9.60;99.90;;;;;;5026877;28;20057;-75
2022/03/20 07:18:17;;;;;;;;;;;9.50;99.90;;;;;;5012280;28;20002;-81
2022/03/20 07:20:45;;;;;;;;;;;9.20;99.90;;;;;;5014526;28;20112;-79
2022/03/20 07:23:13;;;;;;;;;;;9.20;99.90;;;;;;5007491;28;20002;-74
2022/03/20 07:31:14;;;;;;;;;;;9.40;99.90;;;;;;5014850;28;20009;-76
2022/03/20 07:33:41;;;;;;;;;;;9.20;99.90;;;;;;5032578;28;20002;-76
2022/03/20 07:36:12;;;;;;;;;;;9.20;99.90;;;;;;5012444;28;20104;-77
2022/03/20 07:38:39;;;;;;;;;;;9.10;99.90;;;;;;5012915;28;19994;-75
2022/03/20 07:41:06;;;;;;;;;;;9.10;99.90;;;;;;5015573;28;20128;-76
2022/03/20 07:43:36;;;;;;;;;;;8.80;99.90;;;;;;5034861;28;19994;-76
2022/03/20 07:46:06;;;;;;;;;;;8.80;99.90;;;;;;5017878;28;20009;-76
2022/03/20 07:48:34;;;;;;;;;;;8.80;99.90;;;;;;5036566;28;19994;-80
2022/03/20 07:51:02;;;;;;;;;;;8.80;99.90;;;;;;5018553;28;20001;-76
2022/03/20 07:53:30;;;;;;;;;;;9.00;99.90;;;;;;5018370;28;20088;-78
2022/03/20 07:55:58;;;;;;;;;;;8.90;99.90;;;;;;5002584;28;20012;-81
2022/03/20 07:58:29;;;;;;;;;;;9.00;99.90;;;;;;5018423;28;20009;-82
2022/03/20 08:00:58;;;;;;;;;;;9.00;99.90;;;;;;5018735;28;20020;-78
2022/03/20 08:03:28;;;;;;;;;;;8.90;99.90;;;;;;5018831;28;19994;-74
2022/03/20 08:05:57;;;;;;;;;;;9.00;99.90;;;;;;4998285;28;20432;-72
2022/03/20 08:08:24;;;;;;;;;;;9.00;99.90;;;;;;5016384;28;20442;-72
2022/03/20 08:10:52;;;;;;;;;;;9.00;99.90;;;;;;5014236;28;20002;-72
2022/03/20 08:13:24;;;;;;;;;;;8.90;99.90;;;;;;4998467;28;20545;-73
2022/03/20 08:15:54;;;;;;;;;;;8.90;99.90;;;;;;4998969;28;20009;-81
2022/03/20 08:18:21;;;;;;;;;;;8.90;99.90;;;;;;4999473;28;20125;-78
2022/03/20 08:20:58;;;;;;;;;;;8.90;99.90;;;;;;5016033;28;20017;-80
2022/03/20 08:23:25;;;;;;;;;;;9.00;99.90;;;;;;4998250;28;20002;-74
2022/03/20 08:25:52;;;;;;;;;;;9.00;99.90;;;;;;5016058;28;20000;-74
2022/03/20 08:28:22;;;;;;;;;;;9.00;99.90;;;;;;5015867;28;20355;-80
2022/03/20 08:30:52;;;;;;;;;;;9.10;99.90;;;;;;5015888;28;20053;-80
2022/03/20 08:33:20;;;;;;;;;;;9.10;99.90;;;;;;5014875;28;20002;-80
2022/03/20 08:35:48;;;;;;;;;;;9.20;99.90;;;;;;5015727;28;20022;-79
2022/03/20 08:38:18;;;;;;;;;;;9.20;99.90;;;;;;5031629;28;20002;-78
2022/03/20 08:40:45;;;;;;;;;;;9.30;99.90;;;;;;5031609;28;20012;-75
2022/03/20 08:43:15;;;;;;;;;;;9.30;99.90;;;;;;5009254;28;20079;-77
2022/03/20 08:45:44;;;;;;;;;;;9.40;99.90;;;;;;5032368;28;20002;-72
2022/03/20 08:48:12;;;;;;;;;;;9.30;99.90;;;;;;5014094;28;20044;-80
2022/03/20 08:50:40;;;;;;;;;;;9.00;99.90;;;;;;5031742;28;20374;-75
2022/03/20 08:53:07;;;;;;;;;;;8.80;99.90;;;;;;5035394;28;20000;-72
2022/03/20 08:55:36;;;;;;;;;;;8.80;99.90;;;;;;5033734;28;20437;-72
2022/03/20 08:58:04;;;;;;;;;;;8.90;99.90;;;;;;5024429;28;20484;-74
2022/03/20 09:00:34;;;;;;;;;;;9.10;99.90;;;;;;5033162;28;20499;-72
2022/03/20 09:03:02;;;;;;;;;;;9.10;99.90;;;;;;5001184;28;19994;-75
2022/03/20 09:05:31;;;;;;;;;;;9.20;99.90;;;;;;5017674;28;20033;-77
2022/03/20 09:07:58;;;;;;;;;;;9.40;99.90;;;;;;5017922;28;20108;-75
2022/03/20 09:10:26;;;;;;;;;;;9.50;99.90;;;;;;5032515;28;20001;-75
2022/03/20 09:12:55;;;;;;;;;;;9.60;99.90;;;;;;5033990;28;20445;-78
2022/03/20 09:15:24;;;;;;;;;;;9.50;99.90;;;;;;5008803;28;19994;-75
2022/03/20 09:20:38;;;;;;;;;;;9.50;99.90;;;;;;5015139;28;20010;-77
2022/03/20 09:23:07;;;;;;;;;;;9.70;99.90;;;;;;5014530;28;19995;-73
2022/03/20 09:25:34;;;;;;;;;;;9.80;99.90;;;;;;5015471;28;20420;-75
2022/03/20 09:28:08;;;;;;;;;;;9.80;99.90;;;;;;5015075;28;20476;-73
2022/03/20 09:30:37;;;;;;;;;;;9.90;99.90;;;;;;4998367;28;20014;-75
2022/03/20 09:33:06;;;;;;;;;;;9.80;99.90;;;;;;5024520;28;20005;-73
2022/03/20 09:35:34;;;;;;;;;;;9.70;99.90;;;;;;5016565;28;20002;-77
2022/03/20 09:38:02;;;;;;;;;;;9.50;99.90;;;;;;5013262;28;20037;-74
2022/03/20 09:40:35;;;;;;;;;;;8.90;99.90;;;;;;5000095;28;20018;-77
2022/03/20 09:43:07;;;;;;;;;;;8.60;99.90;;;;;;5034440;28;20005;-77
2022/03/20 09:45:35;;;;;;;;;;;8.70;99.90;;;;;;5026768;28;20512;-77
2022/03/20 09:48:04;;;;;;;;;;;8.80;99.90;;;;;;5023431;28;19998;-77
2022/03/20 09:50:32;;;;;;;;;;;9.00;99.90;;;;;;5011969;28;19998;-74
2022/03/20 09:53:01;;;;;;;;;;;9.00;99.90;;;;;;5034755;28;20088;-75
2022/03/20 09:55:29;;;;;;;;;;;9.00;99.90;;;;;;5034266;28;20002;-74
2022/03/20 09:57:57;;;;;;;;;;;9.00;99.90;;;;;;5015674;28;20548;-78
2022/03/20 10:00:25;;;;;;;;;;;8.90;99.90;;;;;;5032604;28;20009;-74
2022/03/20 10:02:52;;;;;;;;;;;9.00;99.90;;;;;;5016039;28;20008;-77
2022/03/20 10:05:28;;;;;;;;;;;9.10;99.90;;;;;;5016198;28;20002;-78
2022/03/20 10:08:20;;;;;;;;;;;9.00;99.90;;;;;;5034126;28;20008;-78
2022/03/20 10:10:48;;;;;;;;;;;9.10;99.90;;;;;;5016352;28;20002;-74
2022/03/20 10:13:15;;;;;;;;;;;9.00;99.90;;;;;;5016200;28;20372;-78
2022/03/20 10:15:43;;;;;;;;;;;9.10;99.90;;;;;;5034169;28;20001;-77
2022/03/20 10:18:24;;;;;;;;;;;9.30;99.90;;;;;;5034185;28;19994;-77
2022/03/20 10:20:59;;;;;;;;;;;9.50;99.90;;;;;;5011914;28;20010;-75
2022/03/20 10:23:28;;;;;;;;;;;9.40;99.90;;;;;;5025099;28;20100;-75
2022/03/20 10:25:59;;;;;;;;;;;9.30;99.90;;;;;;5000101;28;20441;-77
2022/03/20 10:28:37;;;;;;;;;;;9.20;99.90;;;;;;4999737;28;20458;-74
2022/03/20 10:31:09;;;;;;;;;;;9.10;99.90;;;;;;5007233;28;20025;-75
2022/03/20 10:33:40;;;;;;;;;;;9.40;99.90;;;;;;5035977;28;20021;-74
2022/03/20 10:36:09;;;;;;;;;;;9.40;99.90;;;;;;5041443;28;20044;-75
2022/03/20 10:38:36;;;;;;;;;;;9.60;99.90;;;;;;5016317;28;20009;-77
2022/03/20 10:41:16;;;;;;;;;;;9.60;99.90;;;;;;5015564;28;20378;-77
2022/03/20 10:43:47;;;;;;;;;;;9.60;99.90;;;;;;5034220;28;19994;-77
2022/03/20 10:46:32;;;;;;;;;;;9.60;99.90;;;;;;5015895;28;20002;-77
2022/03/20 10:49:01;;;;;;;;;;;9.70;99.90;;;;;;5015108;28;20540;-77
2022/03/20 10:51:37;;;;;;;;;;;9.90;99.90;;;;;;5011609;28;20378;-77
2022/03/20 10:54:15;;;;;;;;;;;9.90;99.90;;;;;;4996290;28;20000;-77
2022/03/20 10:56:53;;;;;;;;;;;9.90;99.90;;;;;;4996357;28;20037;-73
2022/03/20 10:59:21;;;;;;;;;;;9.90;99.90;;;;;;5013391;28;20006;-77
2022/03/20 11:01:49;;;;;;;;;;;9.80;99.90;;;;;;5024701;28;20044;-74
2022/03/20 11:04:17;;;;;;;;;;;9.80;99.90;;;;;;5033161;28;20033;-77
2022/03/20 11:06:47;;;;;;;;;;;9.70;99.90;;;;;;5015534;28;20052;-78
2022/03/20 11:09:26;;;;;;;;;;;9.70;99.90;;;;;;5034095;28;20004;-77
2022/03/20 11:11:58;;;;;;;;;;;9.80;99.90;;;;;;5000338;28;20044;-77
2022/03/20 11:14:26;;;;;;;;;;;9.80;99.90;;;;;;5016640;28;20438;-75
2022/03/20 11:16:59;;;;;;;;;;;10.00;99.90;;;;;;5030080;28;19998;-77
2022/03/20 11:19:28;;;;;;;;;;;10.10;99.90;;;;;;5035878;28;20101;-77
2022/03/20 11:22:10;;;;;;;;;;;10.30;99.90;;;;;;5019031;28;20108;-77
2022/03/20 11:24:37;;;;;;;;;;;10.30;99.90;;;;;;5036547;28;20024;-73
2022/03/20 11:27:05;;;;;;;;;;;10.50;99.90;;;;;;5017513;28;20433;-76
2022/03/20 11:29:50;;;;;;;;;;;10.60;99.90;;;;;;5019857;28;20085;-75
2022/03/20 11:32:18;;;;;;;;;;;10.70;99.90;;;;;;5018421;28;20017;-75
2022/03/20 11:34:46;;;;;;;;;;;10.80;99.90;;;;;;5036616;28;20014;-73
2022/03/20 11:37:18;;;;;;;;;;;10.70;99.90;;;;;;5037313;28;20393;-74
2022/03/20 11:40:04;;;;;;;;;;;10.40;99.90;;;;;;5019325;28;19994;-77
2022/03/20 11:42:32;;;;;;;;;;;10.60;99.90;;;;;;5017650;28;20014;-75
2022/03/20 11:45:04;;;;;;;;;;;10.60;99.90;;;;;;5003330;28;20369;-74
2022/03/20 11:47:36;;;;;;;;;;;10.70;99.90;;;;;;5039087;28;19993;-77
2022/03/20 11:50:08;;;;;;;;;;;10.60;99.90;;;;;;5042702;28;20002;-74
2022/03/20 11:52:55;;;;;;;;;;;10.30;99.90;;;;;;5026710;28;20017;-77
2022/03/20 11:55:29;;;;;;;;;;;10.20;99.90;;;;;;5036084;28;20029;-73
2022/03/20 11:58:01;;;;;;;;;;;10.20;99.90;;;;;;5018815;28;19997;-76
2022/03/20 12:00:29;;;;;;;;;;;10.30;99.90;;;;;;5026320;28;20011;-76
2022/03/20 12:03:03;;;;;;;;;;;10.40;1.00;;;;;;5025964;28;19997;-73
2022/03/20 12:05:31;;;;;;;;;;;10.40;99.90;;;;;;5030279;28;20037;-73
2022/03/20 12:08:08;;;;;;;;;;;10.40;14.40;;;;;;5008940;28;20044;-75
2022/03/20 12:10:55;;;;;;;;;;;10.50;99.90;;;;;;5030556;28;19994;-76
2022/03/20 12:13:22;;;;;;;;;;;10.60;99.90;;;;;;5042400;28;20055;-74
2022/03/20 12:15:53;;;;;;;;;;;10.60;99.90;;;;;;5030645;28;19997;-73
2022/03/20 12:18:24;;;;;;;;;;;10.70;99.90;;;;;;5033292;28;20051;-75
2022/03/20 12:20:55;;;;;;;;;;;10.70;99.90;;;;;;5038975;28;20101;-76
2022/03/20 12:23:40;;;;;;;;;;;10.90;99.90;;;;;;5042091;28;20032;-75
2022/03/20 12:26:31;;;;;;;;;;;11.00;99.90;;;;;;5035361;28;20024;-73
2022/03/20 12:29:19;;;;;;;;;;;11.20;99.90;;;;;;5015444;28;20387;-73
2022/03/20 12:31:56;;;;;;;;;;;11.20;99.90;;;;;;4998088;28;20018;-76
2022/03/20 12:34:25;;;;;;;;;;;11.40;99.90;;;;;;5015912;28;20014;-75
2022/03/20 12:36:52;;;;;;;;;;;11.50;99.90;;;;;;4998884;28;19995;-77
2022/03/20 12:39:38;;;;;;;;;;;11.50;99.90;;;;;;4998535;28;20009;-75
2022/03/20 12:42:17;;;;;;;;;;;11.30;99.90;;;;;;5015896;28;20014;-76
2022/03/20 12:44:46;;;;;;;;;;;11.10;99.90;;;;;;5015860;28;20000;-77
2022/03/20 12:47:17;;;;;;;;;;;11.10;99.90;;;;;;5015829;28;19998;-74
2022/03/20 12:49:51;;;;;;;;;;;11.40;99.90;;;;;;5009290;28;20092;-74
2022/03/20 12:52:18;;;;;;;;;;;11.60;99.90;;;;;;5035348;28;20033;-74
2022/03/20 12:54:53;;;;;;;;;;;11.70;99.90;;;;;;5035698;28;19994;-77
2022/03/20 12:57:35;;;;;;;;;;;11.70;99.90;;;;;;5035215;28;19994;-76
2022/03/20 13:00:22;;;;;;;;;;;11.60;99.90;;;;;;5029979;28;20092;-74
2022/03/20 13:02:57;;;;;;;;;;;11.50;99.90;;;;;;5033712;28;20018;-76
2022/03/20 13:05:48;;;;;;;;;;;11.50;99.90;;;;;;5004404;28;19994;-73
2022/03/20 13:08:20;;;;;;;;;;;11.40;99.90;;;;;;5034153;28;19994;-75
2022/03/20 13:10:51;;;;;;;;;;;11.10;99.90;;;;;;5034574;28;20089;-74
2022/03/20 13:13:26;;;;;;;;;;;10.80;99.90;;;;;;5034719;28;20021;-75
2022/03/20 13:15:53;;;;;;;;;;;10.70;99.90;;;;;;5034606;28;20104;-75
2022/03/20 13:18:25;;;;;;;;;;;10.70;99.90;;;;;;5032578;28;20437;-73
2022/03/20 13:20:52;;;;;;;;;;;10.70;99.90;;;;;;5012691;28;20479;-76
2022/03/20 13:23:21;;;;;;;;;;;10.90;99.90;;;;;;5016138;28;20025;-76
2022/03/20 13:25:51;;;;;;;;;;;11.00;99.90;;;;;;5033234;28;20523;-76
2022/03/20 13:28:34;;;;;;;;;;;11.20;99.90;;;;;;5026771;28;20040;-74
2022/03/20 13:31:32;;;;;;;;;;;11.30;99.90;;;;;;5033366;28;20020;-77
2022/03/20 13:34:03;;;;;;;;;;;11.70;99.90;;;;;;5015479;28;19994;-76
2022/03/20 13:36:38;;;;;;;;;;;11.60;99.90;;;;;;5015051;28;20009;-74
2022/03/20 13:39:12;;;;;;;;;;;11.70;99.90;;;;;;5034728;28;20391;-76
2022/03/20 13:41:41;;;;;;;;;;;11.90;99.90;;;;;;5029101;28;20541;-75
2022/03/20 13:44:13;;;;;;;;;;;11.80;99.90;;;;;;5033264;28;19997;-73
2022/03/20 13:46:40;;;;;;;;;;;11.60;99.90;;;;;;5033705;28;19998;-72
2022/03/20 13:49:08;;;;;;;;;;;11.60;99.90;;;;;;5034087;28;20000;-77
2022/03/20 13:51:36;;;;;;;;;;;11.60;99.90;;;;;;5033902;28;19994;-72
2022/03/20 13:54:14;;;;;;;;;;;11.70;99.90;;;;;;5030990;28;20041;-72
2022/03/20 13:56:42;;;;;;;;;;;11.40;99.90;;;;;;5015850;28;20008;-77
2022/03/20 13:59:12;;;;;;;;;;;11.30;99.90;;;;;;5016467;28;20001;-72
2022/03/20 14:01:43;;;;;;;;;;;11.20;99.90;;;;;;5021915;28;20009;-74
2022/03/20 14:04:14;;;;;;;;;;;11.40;99.90;;;;;;5033645;28;19994;-73
2022/03/20 14:06:44;;;;;;;;;;;11.40;99.90;;;;;;5033620;28;20004;-73
2022/03/20 14:09:12;;;;;;;;;;;11.20;98.00;;;;;;5032941;28;20093;-72
2022/03/20 14:11:42;;;;;;;;;;;11.10;96.40;;;;;;5030993;28;19997;-72
2022/03/20 14:14:11;;;;;;;;;;;11.00;95.30;;;;;;5015978;28;19998;-71
2022/03/20 14:17:00;;;;;;;;;;;10.90;92.40;;;;;;5016204;28;20008;-71
2022/03/20 14:19:28;;;;;;;;;;;10.80;92.20;;;;;;5015910;28;20041;-75
2022/03/20 14:21:56;;;;;;;;;;;10.80;93.10;;;;;;4999208;28;20010;-74
2022/03/20 14:24:23;;;;;;;;;;;10.80;93.60;;;;;;4999468;28;19998;-76
2022/03/20 14:26:56;;;;;;;;;;;10.80;92.80;;;;;;5033653;28;20028;-76
2022/03/20 14:40:55;;;;;;;;;;;10.70;87.80;;;;;;5032536;28;20033;-77
2022/03/20 14:43:26;;;;;;;;;;;10.60;88.40;;;;;;5033747;28;20018;-78
2022/03/20 14:46:00;;;;;;;;;;;10.60;90.60;;;;;;5015102;28;19998;-77
2022/03/20 14:48:30;;;;;;;;;;;10.60;95.60;;;;;;4996964;28;20472;-73
2022/03/20 14:50:58;;;;;;;;;;;10.40;95.20;;;;;;5011706;28;22114;-72
2022/03/20 14:53:31;;;;;;;;;;;10.30;95.20;;;;;;4996024;28;20003;-72
2022/03/20 14:55:59;;;;;;;;;;;10.30;95.70;;;;;;5001328;28;20662;-79
2022/03/20 14:58:26;;;;;;;;;;;10.40;99.90;;;;;;5032459;28;19998;-76
2022/03/20 15:00:56;;;;;;;;;;;10.50;97.30;;;;;;5016176;28;20092;-73
2022/03/20 15:03:26;;;;;;;;;;;10.50;99.90;;;;;;5033236;28;20009;-73
2022/03/20 15:05:55;;;;;;;;;;;10.50;99.90;;;;;;5015989;28;20008;-73
2022/03/20 15:11:27;;;;;;;;;;;10.30;99.90;;;;;;5015266;28;20101;-76
2022/03/20 15:13:58;;;;;;;;;;;10.20;99.90;;;;;;5015825;28;20029;-73
2022/03/20 15:16:27;;;;;;;;;;;10.20;99.90;;;;;;5033347;28;20108;-75
2022/03/20 15:18:54;;;;;;;;;;;10.00;99.90;;;;;;5033374;28;20040;-78
2022/03/20 15:21:21;;;;;;;;;;;9.90;99.90;;;;;;5033179;28;20008;-73
2022/03/20 15:23:49;;;;;;;;;;;9.80;99.90;;;;;;5014779;28;20409;-73
2022/03/20 15:26:20;;;;;;;;;;;9.70;99.90;;;;;;5013155;28;19998;-72
2022/03/20 15:28:48;;;;;;;;;;;9.70;99.90;;;;;;5015460;28;19998;-72
2022/03/20 15:31:15;;;;;;;;;;;9.50;99.90;;;;;;5032803;28;20010;-74
2022/03/20 15:33:43;;;;;;;;;;;9.40;99.90;;;;;;5032866;28;20014;-74
2022/03/20 15:36:16;;;;;;;;;;;9.20;99.90;;;;;;5024510;28;19994;-77